sensor_id;sensor_type;location;lat;lon;timestamp;P1;durP1;ratioP1;P2;durP2;ratioP2
9467;SDS011;4772;52.382;9.752;2024-03-06T00:00:16;15.87;;;11.60;;
9467;SDS011;4772;52.382;9.752;2024-03-06T00:02:42;15.03;;;12.00;;
9467;SDS011;4772;52.382;9.752;2024-03-06T00:05:08;17.17;;;11.50;;
9467;SDS011;4772;52.382;9.752;2024-03-06T00:07:34;15.43;;;11.60;;
9467;SDS011;4772;52.382;9.752;2024-03-06T00:10:00;14.47;;;11.73;;
9467;SDS011;4772;52.382;9.752;2024-03-06T00:12:26;17.30;;;11.63;;
9467;SDS011;4772;52.382;9.752;2024-03-06T00:14:52;15.80;;;11.67;;
9467;SDS011;4772;52.382;9.752;2024-03-06T00:17:18;14.90;;;11.17;;
9467;SDS011;4772;52.382;9.752;2024-03-06T00:19:44;15.30;;;11.67;;
9467;SDS011;4772;52.382;9.752;2024-03-06T00:22:10;16.30;;;11.73;;
9467;SDS011;4772;52.382;9.752;2024-03-06T00:24:36;17.03;;;11.20;;
9467;SDS011;4772;52.382;9.752;2024-03-06T00:27:02;14.73;;;11.70;;
9467;SDS011;4772;52.382;9.752;2024-03-06T00:29:30;16.03;;;12.00;;
9467;SDS011;4772;52.382;9.752;2024-03-06T00:32:01;16.77;;;12.03;;
9467;SDS011;4772;52.382;9.752;2024-03-06T00:34:27;18.87;;;11.40;;
9467;SDS011;4772;52.382;9.752;2024-03-06T00:36:54;16.50;;;12.27;;
9467;SDS011;4772;52.382;9.752;2024-03-06T00:39:20;14.47;;;11.90;;
9467;SDS011;4772;52.382;9.752;2024-03-06T00:41:46;18.23;;;12.20;;
9467;SDS011;4772;52.382;9.752;2024-03-06T00:44:12;15.60;;;12.07;;
9467;SDS011;4772;52.382;9.752;2024-03-06T00:46:39;17.57;;;12.60;;
9467;SDS011;4772;52.382;9.752;2024-03-06T00:49:05;14.90;;;11.67;;
9467;SDS011;4772;52.382;9.752;2024-03-06T00:51:31;16.83;;;12.20;;
9467;SDS011;4772;52.382;9.752;2024-03-06T00:54:01;14.80;;;12.00;;
9467;SDS011;4772;52.382;9.752;2024-03-06T00:56:27;17.03;;;12.07;;
9467;SDS011;4772;52.382;9.752;2024-03-06T00:58:53;16.37;;;12.00;;
9467;SDS011;4772;52.382;9.752;2024-03-06T01:01:19;16.80;;;12.20;;
9467;SDS011;4772;52.382;9.752;2024-03-06T01:03:45;16.23;;;11.97;;
9467;SDS011;4772;52.382;9.752;2024-03-06T01:21:32;16.97;;;11.97;;
9467;SDS011;4772;52.382;9.752;2024-03-06T01:24:27;15.77;;;12.03;;
9467;SDS011;4772;52.382;9.752;2024-03-06T01:30:40;20.23;;;12.87;;
9467;SDS011;4772;52.382;9.752;2024-03-06T01:33:58;17.57;;;12.60;;
9467;SDS011;4772;52.382;9.752;2024-03-06T01:36:24;17.50;;;12.83;;
9467;SDS011;4772;52.382;9.752;2024-03-06T01:38:50;16.60;;;12.97;;
9467;SDS011;4772;52.382;9.752;2024-03-06T01:41:16;16.33;;;13.03;;
9467;SDS011;4772;52.382;9.752;2024-03-06T01:43:42;17.50;;;12.83;;
9467;SDS011;4772;52.382;9.752;2024-03-06T01:46:08;15.60;;;12.07;;
9467;SDS011;4772;52.382;9.752;2024-03-06T01:48:34;14.83;;;12.50;;
9467;SDS011;4772;52.382;9.752;2024-03-06T01:51:01;17.70;;;13.37;;
9467;SDS011;4772;52.382;9.752;2024-03-06T01:53:29;18.33;;;13.60;;
9467;SDS011;4772;52.382;9.752;2024-03-06T01:55:57;15.97;;;12.57;;
9467;SDS011;4772;52.382;9.752;2024-03-06T01:58:23;18.67;;;13.63;;
9467;SDS011;4772;52.382;9.752;2024-03-06T02:00:50;16.23;;;12.50;;
9467;SDS011;4772;52.382;9.752;2024-03-06T02:03:17;18.73;;;13.33;;
9467;SDS011;4772;52.382;9.752;2024-03-06T02:05:44;20.23;;;13.77;;
9467;SDS011;4772;52.382;9.752;2024-03-06T02:08:10;17.50;;;12.63;;
9467;SDS011;4772;52.382;9.752;2024-03-06T02:10:36;18.03;;;12.97;;
9467;SDS011;4772;52.382;9.752;2024-03-06T02:13:02;19.07;;;13.90;;
9467;SDS011;4772;52.382;9.752;2024-03-06T02:15:28;19.97;;;13.57;;
9467;SDS011;4772;52.382;9.752;2024-03-06T02:17:55;17.70;;;12.30;;
9467;SDS011;4772;52.382;9.752;2024-03-06T02:20:22;16.67;;;12.83;;
9467;SDS011;4772;52.382;9.752;2024-03-06T02:22:48;18.20;;;13.13;;
9467;SDS011;4772;52.382;9.752;2024-03-06T02:25:14;19.37;;;13.20;;
9467;SDS011;4772;52.382;9.752;2024-03-06T02:27:40;18.87;;;13.50;;
9467;SDS011;4772;52.382;9.752;2024-03-06T02:30:12;19.13;;;14.23;;
9467;SDS011;4772;52.382;9.752;2024-03-06T02:32:38;18.90;;;13.23;;
9467;SDS011;4772;52.382;9.752;2024-03-06T02:35:04;16.93;;;13.40;;
9467;SDS011;4772;52.382;9.752;2024-03-06T02:37:33;18.87;;;13.90;;
9467;SDS011;4772;52.382;9.752;2024-03-06T02:39:59;18.53;;;14.07;;
9467;SDS011;4772;52.382;9.752;2024-03-06T02:42:27;16.70;;;13.07;;
9467;SDS011;4772;52.382;9.752;2024-03-06T02:44:53;16.57;;;13.43;;
9467;SDS011;4772;52.382;9.752;2024-03-06T02:47:19;17.93;;;13.43;;
9467;SDS011;4772;52.382;9.752;2024-03-06T02:49:45;16.77;;;13.50;;
9467;SDS011;4772;52.382;9.752;2024-03-06T02:52:11;18.37;;;13.40;;
9467;SDS011;4772;52.382;9.752;2024-03-06T02:54:43;18.40;;;13.00;;
9467;SDS011;4772;52.382;9.752;2024-03-06T02:57:09;18.60;;;13.40;;
9467;SDS011;4772;52.382;9.752;2024-03-06T02:59:35;18.20;;;13.67;;
9467;SDS011;4772;52.382;9.752;2024-03-06T03:02:04;18.80;;;13.40;;
9467;SDS011;4772;52.382;9.752;2024-03-06T03:04:30;17.77;;;13.63;;
9467;SDS011;4772;52.382;9.752;2024-03-06T03:06:56;18.73;;;14.23;;
9467;SDS011;4772;52.382;9.752;2024-03-06T03:09:31;16.60;;;13.17;;
9467;SDS011;4772;52.382;9.752;2024-03-06T03:12:01;16.67;;;13.00;;
9467;SDS011;4772;52.382;9.752;2024-03-06T03:14:27;18.73;;;13.57;;
9467;SDS011;4772;52.382;9.752;2024-03-06T03:16:53;19.27;;;13.77;;
9467;SDS011;4772;52.382;9.752;2024-03-06T03:19:19;18.83;;;12.70;;
9467;SDS011;4772;52.382;9.752;2024-03-06T03:21:45;17.70;;;12.67;;
9467;SDS011;4772;52.382;9.752;2024-03-06T03:24:11;20.23;;;13.30;;
9467;SDS011;4772;52.382;9.752;2024-03-06T03:26:44;15.73;;;12.97;;
9467;SDS011;4772;52.382;9.752;2024-03-06T03:29:10;17.43;;;12.97;;
9467;SDS011;4772;52.382;9.752;2024-03-06T03:31:36;16.70;;;13.93;;
9467;SDS011;4772;52.382;9.752;2024-03-06T03:34:03;18.57;;;13.90;;
9467;SDS011;4772;52.382;9.752;2024-03-06T03:36:30;16.47;;;12.80;;
9467;SDS011;4772;52.382;9.752;2024-03-06T03:39:04;17.87;;;12.80;;
9467;SDS011;4772;52.382;9.752;2024-03-06T03:41:57;17.67;;;13.00;;
9467;SDS011;4772;52.382;9.752;2024-03-06T03:44:23;17.33;;;13.63;;
9467;SDS011;4772;52.382;9.752;2024-03-06T03:46:49;18.17;;;13.70;;
9467;SDS011;4772;52.382;9.752;2024-03-06T03:49:15;17.73;;;13.30;;
9467;SDS011;4772;52.382;9.752;2024-03-06T03:51:41;17.73;;;14.30;;
9467;SDS011;4772;52.382;9.752;2024-03-06T03:54:07;20.13;;;13.87;;
9467;SDS011;4772;52.382;9.752;2024-03-06T03:56:34;20.00;;;13.90;;
9467;SDS011;4772;52.382;9.752;2024-03-06T03:59:00;17.70;;;13.87;;
9467;SDS011;4772;52.382;9.752;2024-03-06T04:01:26;19.70;;;14.27;;
9467;SDS011;4772;52.382;9.752;2024-03-06T04:03:52;18.20;;;13.37;;
9467;SDS011;4772;52.382;9.752;2024-03-06T04:06:18;18.23;;;13.43;;
9467;SDS011;4772;52.382;9.752;2024-03-06T04:08:44;17.27;;;13.17;;
9467;SDS011;4772;52.382;9.752;2024-03-06T04:11:10;16.77;;;13.30;;
9467;SDS011;4772;52.382;9.752;2024-03-06T04:13:37;19.63;;;14.93;;
9467;SDS011;4772;52.382;9.752;2024-03-06T04:16:03;17.93;;;13.33;;
9467;SDS011;4772;52.382;9.752;2024-03-06T04:18:30;18.50;;;13.63;;
9467;SDS011;4772;52.382;9.752;2024-03-06T04:21:04;21.13;;;13.77;;
9467;SDS011;4772;52.382;9.752;2024-03-06T04:23:30;21.63;;;13.67;;
9467;SDS011;4772;52.382;9.752;2024-03-06T04:25:56;18.50;;;13.47;;
9467;SDS011;4772;52.382;9.752;2024-03-06T04:28:22;18.37;;;13.87;;
9467;SDS011;4772;52.382;9.752;2024-03-06T04:30:48;21.90;;;14.37;;
9467;SDS011;4772;52.382;9.752;2024-03-06T04:33:14;20.77;;;13.60;;
9467;SDS011;4772;52.382;9.752;2024-03-06T04:35:40;19.03;;;14.67;;
9467;SDS011;4772;52.382;9.752;2024-03-06T04:38:06;16.70;;;13.57;;
9467;SDS011;4772;52.382;9.752;2024-03-06T04:40:33;18.17;;;14.00;;
9467;SDS011;4772;52.382;9.752;2024-03-06T04:42:59;17.33;;;13.83;;
9467;SDS011;4772;52.382;9.752;2024-03-06T04:45:25;18.13;;;14.00;;
9467;SDS011;4772;52.382;9.752;2024-03-06T04:47:51;18.43;;;14.17;;
9467;SDS011;4772;52.382;9.752;2024-03-06T04:50:17;18.87;;;14.00;;
9467;SDS011;4772;52.382;9.752;2024-03-06T04:52:43;22.53;;;14.20;;
9467;SDS011;4772;52.382;9.752;2024-03-06T04:55:10;19.93;;;14.27;;
9467;SDS011;4772;52.382;9.752;2024-03-06T04:57:37;18.00;;;13.57;;
9467;SDS011;4772;52.382;9.752;2024-03-06T05:00:04;20.43;;;14.53;;
9467;SDS011;4772;52.382;9.752;2024-03-06T05:02:31;18.47;;;14.67;;
9467;SDS011;4772;52.382;9.752;2024-03-06T05:04:59;19.47;;;14.30;;
9467;SDS011;4772;52.382;9.752;2024-03-06T05:07:28;25.47;;;14.63;;
9467;SDS011;4772;52.382;9.752;2024-03-06T05:09:55;20.40;;;14.97;;
9467;SDS011;4772;52.382;9.752;2024-03-06T05:12:22;19.60;;;14.80;;
9467;SDS011;4772;52.382;9.752;2024-03-06T05:14:48;24.10;;;15.50;;
9467;SDS011;4772;52.382;9.752;2024-03-06T05:17:14;20.87;;;14.23;;
9467;SDS011;4772;52.382;9.752;2024-03-06T05:19:40;19.57;;;14.43;;
9467;SDS011;4772;52.382;9.752;2024-03-06T05:22:06;19.50;;;14.27;;
9467;SDS011;4772;52.382;9.752;2024-03-06T05:24:32;20.93;;;14.37;;
9467;SDS011;4772;52.382;9.752;2024-03-06T05:26:58;18.03;;;14.23;;
9467;SDS011;4772;52.382;9.752;2024-03-06T05:29:24;23.97;;;15.77;;
9467;SDS011;4772;52.382;9.752;2024-03-06T05:31:50;19.27;;;14.57;;
9467;SDS011;4772;52.382;9.752;2024-03-06T05:34:16;24.10;;;15.20;;
9467;SDS011;4772;52.382;9.752;2024-03-06T05:36:42;23.87;;;16.07;;
9467;SDS011;4772;52.382;9.752;2024-03-06T05:39:08;21.00;;;15.37;;
9467;SDS011;4772;52.382;9.752;2024-03-06T05:41:37;19.43;;;14.47;;
9467;SDS011;4772;52.382;9.752;2024-03-06T05:44:04;26.30;;;15.67;;
9467;SDS011;4772;52.382;9.752;2024-03-06T05:46:29;23.03;;;15.60;;
9467;SDS011;4772;52.382;9.752;2024-03-06T05:48:56;22.17;;;16.27;;
9467;SDS011;4772;52.382;9.752;2024-03-06T05:51:21;19.97;;;15.13;;
9467;SDS011;4772;52.382;9.752;2024-03-06T05:53:48;25.87;;;15.50;;
9467;SDS011;4772;52.382;9.752;2024-03-06T05:56:13;20.40;;;15.00;;
9467;SDS011;4772;52.382;9.752;2024-03-06T05:58:39;24.73;;;15.70;;
9467;SDS011;4772;52.382;9.752;2024-03-06T06:01:06;22.60;;;15.50;;
9467;SDS011;4772;52.382;9.752;2024-03-06T06:03:32;21.40;;;15.53;;
9467;SDS011;4772;52.382;9.752;2024-03-06T06:05:58;19.83;;;14.83;;
9467;SDS011;4772;52.382;9.752;2024-03-06T06:08:24;22.57;;;15.40;;
9467;SDS011;4772;52.382;9.752;2024-03-06T06:10:50;22.60;;;15.53;;
9467;SDS011;4772;52.382;9.752;2024-03-06T06:13:19;19.13;;;14.97;;
9467;SDS011;4772;52.382;9.752;2024-03-06T06:15:46;20.23;;;15.57;;
9467;SDS011;4772;52.382;9.752;2024-03-06T06:18:12;19.97;;;15.50;;
9467;SDS011;4772;52.382;9.752;2024-03-06T06:20:40;24.70;;;15.17;;
9467;SDS011;4772;52.382;9.752;2024-03-06T06:23:08;24.50;;;15.47;;
9467;SDS011;4772;52.382;9.752;2024-03-06T06:25:34;21.03;;;15.50;;
9467;SDS011;4772;52.382;9.752;2024-03-06T06:28:00;20.00;;;15.27;;
9467;SDS011;4772;52.382;9.752;2024-03-06T06:30:27;23.47;;;15.60;;
9467;SDS011;4772;52.382;9.752;2024-03-06T06:33:06;25.93;;;15.83;;
9467;SDS011;4772;52.382;9.752;2024-03-06T06:35:38;19.93;;;15.53;;
9467;SDS011;4772;52.382;9.752;2024-03-06T06:38:04;19.90;;;14.90;;
9467;SDS011;4772;52.382;9.752;2024-03-06T06:40:30;20.63;;;15.40;;
9467;SDS011;4772;52.382;9.752;2024-03-06T06:42:58;25.03;;;16.20;;
9467;SDS011;4772;52.382;9.752;2024-03-06T06:48:29;22.40;;;16.27;;
9467;SDS011;4772;52.382;9.752;2024-03-06T06:50:55;26.73;;;16.50;;
9467;SDS011;4772;52.382;9.752;2024-03-06T06:53:33;23.27;;;16.07;;
9467;SDS011;4772;52.382;9.752;2024-03-06T06:56:01;23.03;;;15.13;;
9467;SDS011;4772;52.382;9.752;2024-03-06T06:58:27;25.27;;;16.17;;
9467;SDS011;4772;52.382;9.752;2024-03-06T07:00:53;22.10;;;15.27;;
9467;SDS011;4772;52.382;9.752;2024-03-06T07:03:19;22.83;;;15.60;;
9467;SDS011;4772;52.382;9.752;2024-03-06T07:05:46;22.13;;;15.70;;
9467;SDS011;4772;52.382;9.752;2024-03-06T07:08:12;21.03;;;15.07;;
9467;SDS011;4772;52.382;9.752;2024-03-06T07:13:36;28.10;;;17.37;;
9467;SDS011;4772;52.382;9.752;2024-03-06T07:16:02;28.80;;;16.20;;
9467;SDS011;4772;52.382;9.752;2024-03-06T07:18:29;20.70;;;15.87;;
9467;SDS011;4772;52.382;9.752;2024-03-06T07:20:55;25.00;;;17.20;;
9467;SDS011;4772;52.382;9.752;2024-03-06T07:23:27;23.83;;;16.80;;
9467;SDS011;4772;52.382;9.752;2024-03-06T07:26:02;24.77;;;16.27;;
9467;SDS011;4772;52.382;9.752;2024-03-06T07:28:28;25.23;;;16.37;;
9467;SDS011;4772;52.382;9.752;2024-03-06T07:30:54;21.87;;;16.43;;
9467;SDS011;4772;52.382;9.752;2024-03-06T07:33:21;25.60;;;16.07;;
9467;SDS011;4772;52.382;9.752;2024-03-06T07:35:47;25.43;;;16.47;;
9467;SDS011;4772;52.382;9.752;2024-03-06T07:38:13;21.20;;;15.47;;
9467;SDS011;4772;52.382;9.752;2024-03-06T07:40:40;25.20;;;16.07;;
9467;SDS011;4772;52.382;9.752;2024-03-06T07:43:09;25.50;;;16.90;;
9467;SDS011;4772;52.382;9.752;2024-03-06T07:45:36;21.40;;;15.70;;
9467;SDS011;4772;52.382;9.752;2024-03-06T07:48:03;24.43;;;16.33;;
9467;SDS011;4772;52.382;9.752;2024-03-06T07:50:29;22.10;;;15.83;;
9467;SDS011;4772;52.382;9.752;2024-03-06T07:55:50;24.63;;;16.53;;
9467;SDS011;4772;52.382;9.752;2024-03-06T07:58:19;23.37;;;16.30;;
9467;SDS011;4772;52.382;9.752;2024-03-06T08:00:46;22.33;;;15.87;;
9467;SDS011;4772;52.382;9.752;2024-03-06T08:03:12;26.47;;;16.33;;
9467;SDS011;4772;52.382;9.752;2024-03-06T08:05:38;23.63;;;16.03;;
9467;SDS011;4772;52.382;9.752;2024-03-06T08:08:04;23.87;;;14.73;;
9467;SDS011;4772;52.382;9.752;2024-03-06T08:10:30;22.50;;;16.07;;
9467;SDS011;4772;52.382;9.752;2024-03-06T08:12:57;24.37;;;15.33;;
9467;SDS011;4772;52.382;9.752;2024-03-06T08:15:23;23.23;;;15.90;;
9467;SDS011;4772;52.382;9.752;2024-03-06T08:17:49;20.67;;;16.07;;
9467;SDS011;4772;52.382;9.752;2024-03-06T08:20:16;22.70;;;15.17;;
9467;SDS011;4772;52.382;9.752;2024-03-06T08:22:42;23.03;;;14.77;;
9467;SDS011;4772;52.382;9.752;2024-03-06T08:25:09;23.57;;;15.00;;
9467;SDS011;4772;52.382;9.752;2024-03-06T08:27:36;23.40;;;16.03;;
9467;SDS011;4772;52.382;9.752;2024-03-06T08:30:05;20.30;;;14.93;;
9467;SDS011;4772;52.382;9.752;2024-03-06T08:32:35;21.60;;;15.57;;
9467;SDS011;4772;52.382;9.752;2024-03-06T08:35:05;19.67;;;15.43;;
9467;SDS011;4772;52.382;9.752;2024-03-06T08:37:34;20.50;;;14.67;;
9467;SDS011;4772;52.382;9.752;2024-03-06T08:40:00;21.20;;;16.17;;
9467;SDS011;4772;52.382;9.752;2024-03-06T08:42:40;21.27;;;14.90;;
9467;SDS011;4772;52.382;9.752;2024-03-06T08:45:09;22.80;;;15.43;;
9467;SDS011;4772;52.382;9.752;2024-03-06T08:47:40;20.13;;;14.80;;
9467;SDS011;4772;52.382;9.752;2024-03-06T08:50:19;22.23;;;15.23;;
9467;SDS011;4772;52.382;9.752;2024-03-06T08:53:03;24.97;;;15.93;;
9467;SDS011;4772;52.382;9.752;2024-03-06T08:55:29;23.50;;;15.23;;
9467;SDS011;4772;52.382;9.752;2024-03-06T08:57:55;24.60;;;15.63;;
9467;SDS011;4772;52.382;9.752;2024-03-06T09:00:21;26.53;;;15.40;;
9467;SDS011;4772;52.382;9.752;2024-03-06T09:02:48;23.20;;;16.17;;
9467;SDS011;4772;52.382;9.752;2024-03-06T09:05:17;24.43;;;15.33;;
9467;SDS011;4772;52.382;9.752;2024-03-06T09:07:43;24.17;;;16.47;;
9467;SDS011;4772;52.382;9.752;2024-03-06T09:10:12;28.20;;;16.30;;
9467;SDS011;4772;52.382;9.752;2024-03-06T09:12:38;20.53;;;16.13;;
9467;SDS011;4772;52.382;9.752;2024-03-06T09:15:05;25.93;;;16.47;;
9467;SDS011;4772;52.382;9.752;2024-03-06T09:17:36;23.20;;;16.17;;
9467;SDS011;4772;52.382;9.752;2024-03-06T09:20:02;26.07;;;16.37;;
9467;SDS011;4772;52.382;9.752;2024-03-06T09:22:47;24.17;;;17.07;;
9467;SDS011;4772;52.382;9.752;2024-03-06T09:25:13;20.77;;;16.60;;
9467;SDS011;4772;52.382;9.752;2024-03-06T09:27:39;21.43;;;16.20;;
9467;SDS011;4772;52.382;9.752;2024-03-06T09:30:07;25.50;;;15.80;;
9467;SDS011;4772;52.382;9.752;2024-03-06T09:32:34;22.93;;;16.37;;
9467;SDS011;4772;52.382;9.752;2024-03-06T09:35:00;24.43;;;16.63;;
9467;SDS011;4772;52.382;9.752;2024-03-06T09:37:26;22.30;;;16.47;;
9467;SDS011;4772;52.382;9.752;2024-03-06T09:39:52;21.30;;;17.30;;
9467;SDS011;4772;52.382;9.752;2024-03-06T09:42:18;22.03;;;16.40;;
9467;SDS011;4772;52.382;9.752;2024-03-06T09:44:44;23.40;;;17.23;;
9467;SDS011;4772;52.382;9.752;2024-03-06T09:47:13;22.07;;;16.60;;
9467;SDS011;4772;52.382;9.752;2024-03-06T09:49:42;25.80;;;16.70;;
9467;SDS011;4772;52.382;9.752;2024-03-06T09:52:08;23.30;;;17.60;;
9467;SDS011;4772;52.382;9.752;2024-03-06T09:54:38;26.47;;;17.87;;
9467;SDS011;4772;52.382;9.752;2024-03-06T09:57:05;27.97;;;18.37;;
9467;SDS011;4772;52.382;9.752;2024-03-06T09:59:31;25.40;;;17.37;;
9467;SDS011;4772;52.382;9.752;2024-03-06T10:02:02;24.33;;;17.90;;
9467;SDS011;4772;52.382;9.752;2024-03-06T10:04:32;24.93;;;17.57;;
9467;SDS011;4772;52.382;9.752;2024-03-06T10:06:59;23.03;;;17.20;;
9467;SDS011;4772;52.382;9.752;2024-03-06T10:09:27;24.90;;;17.00;;
9467;SDS011;4772;52.382;9.752;2024-03-06T10:11:54;20.77;;;16.07;;
9467;SDS011;4772;52.382;9.752;2024-03-06T10:14:23;25.93;;;18.20;;
9467;SDS011;4772;52.382;9.752;2024-03-06T10:17:01;21.10;;;16.97;;
9467;SDS011;4772;52.382;9.752;2024-03-06T10:19:28;25.17;;;17.97;;
9467;SDS011;4772;52.382;9.752;2024-03-06T10:21:55;21.60;;;16.57;;
9467;SDS011;4772;52.382;9.752;2024-03-06T10:24:22;22.83;;;16.97;;
9467;SDS011;4772;52.382;9.752;2024-03-06T10:26:52;25.17;;;18.00;;
9467;SDS011;4772;52.382;9.752;2024-03-06T10:29:23;22.90;;;16.77;;
9467;SDS011;4772;52.382;9.752;2024-03-06T10:31:53;23.67;;;17.00;;
9467;SDS011;4772;52.382;9.752;2024-03-06T10:34:20;22.07;;;17.07;;
9467;SDS011;4772;52.382;9.752;2024-03-06T10:36:48;26.67;;;18.57;;
9467;SDS011;4772;52.382;9.752;2024-03-06T10:39:18;26.87;;;17.40;;
9467;SDS011;4772;52.382;9.752;2024-03-06T10:41:45;22.80;;;16.70;;
9467;SDS011;4772;52.382;9.752;2024-03-06T10:44:12;23.67;;;18.57;;
9467;SDS011;4772;52.382;9.752;2024-03-06T10:46:39;24.60;;;17.57;;
9467;SDS011;4772;52.382;9.752;2024-03-06T10:49:05;23.10;;;17.00;;
9467;SDS011;4772;52.382;9.752;2024-03-06T10:51:32;27.83;;;17.87;;
9467;SDS011;4772;52.382;9.752;2024-03-06T10:53:59;25.63;;;16.27;;
9467;SDS011;4772;52.382;9.752;2024-03-06T10:56:26;24.90;;;17.10;;
9467;SDS011;4772;52.382;9.752;2024-03-06T10:58:52;23.43;;;16.67;;
9467;SDS011;4772;52.382;9.752;2024-03-06T11:01:21;23.53;;;16.87;;
9467;SDS011;4772;52.382;9.752;2024-03-06T11:03:48;23.03;;;17.07;;
9467;SDS011;4772;52.382;9.752;2024-03-06T11:06:14;20.13;;;16.20;;
9467;SDS011;4772;52.382;9.752;2024-03-06T11:08:40;22.37;;;15.13;;
9467;SDS011;4772;52.382;9.752;2024-03-06T11:11:20;20.97;;;16.33;;
9467;SDS011;4772;52.382;9.752;2024-03-06T11:13:46;18.60;;;16.60;;
9467;SDS011;4772;52.382;9.752;2024-03-06T11:16:13;22.03;;;17.70;;
9467;SDS011;4772;52.382;9.752;2024-03-06T11:18:41;21.17;;;16.93;;
9467;SDS011;4772;52.382;9.752;2024-03-06T11:23:34;24.80;;;16.40;;
9467;SDS011;4772;52.382;9.752;2024-03-06T11:26:01;24.40;;;16.60;;
9467;SDS011;4772;52.382;9.752;2024-03-06T11:28:29;22.43;;;16.77;;
9467;SDS011;4772;52.382;9.752;2024-03-06T11:30:56;21.83;;;15.87;;
9467;SDS011;4772;52.382;9.752;2024-03-06T11:33:39;20.23;;;16.07;;
9467;SDS011;4772;52.382;9.752;2024-03-06T11:41:21;21.10;;;16.10;;
9467;SDS011;4772;52.382;9.752;2024-03-06T11:43:48;21.80;;;15.97;;
9467;SDS011;4772;52.382;9.752;2024-03-06T11:46:21;20.87;;;15.67;;
9467;SDS011;4772;52.382;9.752;2024-03-06T11:48:54;20.30;;;15.47;;
9467;SDS011;4772;52.382;9.752;2024-03-06T11:51:20;19.27;;;14.67;;
9467;SDS011;4772;52.382;9.752;2024-03-06T11:53:51;20.07;;;16.37;;
9467;SDS011;4772;52.382;9.752;2024-03-06T11:56:18;24.97;;;16.77;;
9467;SDS011;4772;52.382;9.752;2024-03-06T11:58:45;21.53;;;16.33;;
9467;SDS011;4772;52.382;9.752;2024-03-06T12:01:14;22.30;;;15.50;;
9467;SDS011;4772;52.382;9.752;2024-03-06T12:03:41;19.77;;;15.03;;
9467;SDS011;4772;52.382;9.752;2024-03-06T12:06:08;19.47;;;14.67;;
9467;SDS011;4772;52.382;9.752;2024-03-06T12:08:34;21.07;;;14.27;;
9467;SDS011;4772;52.382;9.752;2024-03-06T12:11:04;20.37;;;16.03;;
9467;SDS011;4772;52.382;9.752;2024-03-06T12:13:30;19.03;;;14.33;;
9467;SDS011;4772;52.382;9.752;2024-03-06T12:15:58;22.03;;;14.70;;
9467;SDS011;4772;52.382;9.752;2024-03-06T12:18:27;23.20;;;15.60;;
9467;SDS011;4772;52.382;9.752;2024-03-06T12:20:53;20.10;;;14.53;;
9467;SDS011;4772;52.382;9.752;2024-03-06T12:23:19;20.60;;;15.50;;
9467;SDS011;4772;52.382;9.752;2024-03-06T12:25:47;21.73;;;15.40;;
9467;SDS011;4772;52.382;9.752;2024-03-06T12:28:13;22.93;;;16.43;;
9467;SDS011;4772;52.382;9.752;2024-03-06T12:30:42;24.17;;;15.93;;
9467;SDS011;4772;52.382;9.752;2024-03-06T12:33:09;19.00;;;15.53;;
9467;SDS011;4772;52.382;9.752;2024-03-06T12:35:39;23.57;;;16.40;;
9467;SDS011;4772;52.382;9.752;2024-03-06T12:38:12;22.97;;;15.97;;
9467;SDS011;4772;52.382;9.752;2024-03-06T12:40:39;17.53;;;14.80;;
9467;SDS011;4772;52.382;9.752;2024-03-06T12:43:05;21.53;;;15.37;;
9467;SDS011;4772;52.382;9.752;2024-03-06T12:45:31;23.57;;;15.90;;
9467;SDS011;4772;52.382;9.752;2024-03-06T12:47:57;22.87;;;15.17;;
9467;SDS011;4772;52.382;9.752;2024-03-06T12:50:24;20.10;;;14.87;;
9467;SDS011;4772;52.382;9.752;2024-03-06T12:52:51;27.00;;;15.37;;
9467;SDS011;4772;52.382;9.752;2024-03-06T12:55:17;24.37;;;16.37;;
9467;SDS011;4772;52.382;9.752;2024-03-06T12:57:44;19.30;;;14.33;;
9467;SDS011;4772;52.382;9.752;2024-03-06T13:00:11;22.43;;;16.27;;
9467;SDS011;4772;52.382;9.752;2024-03-06T13:02:43;21.60;;;15.17;;
9467;SDS011;4772;52.382;9.752;2024-03-06T13:05:09;21.50;;;14.97;;
9467;SDS011;4772;52.382;9.752;2024-03-06T13:07:36;20.13;;;15.10;;
9467;SDS011;4772;52.382;9.752;2024-03-06T14:26:34;26.30;;;17.70;;
9467;SDS011;4772;52.382;9.752;2024-03-06T14:29:00;23.60;;;17.10;;
9467;SDS011;4772;52.382;9.752;2024-03-06T14:31:27;20.83;;;16.53;;
9467;SDS011;4772;52.382;9.752;2024-03-06T14:33:53;19.63;;;16.10;;
9467;SDS011;4772;52.382;9.752;2024-03-06T14:36:20;20.67;;;16.40;;
9467;SDS011;4772;52.382;9.752;2024-03-06T14:38:47;21.33;;;16.20;;
9467;SDS011;4772;52.382;9.752;2024-03-06T14:41:13;19.87;;;16.17;;
9467;SDS011;4772;52.382;9.752;2024-03-06T14:43:39;19.70;;;16.83;;
9467;SDS011;4772;52.382;9.752;2024-03-06T14:46:05;20.30;;;16.23;;
9467;SDS011;4772;52.382;9.752;2024-03-06T14:48:31;19.90;;;15.27;;
9467;SDS011;4772;52.382;9.752;2024-03-06T14:50:59;23.07;;;16.57;;
9467;SDS011;4772;52.382;9.752;2024-03-06T14:53:25;19.13;;;15.47;;
9467;SDS011;4772;52.382;9.752;2024-03-06T14:55:51;19.23;;;16.13;;
9467;SDS011;4772;52.382;9.752;2024-03-06T14:58:18;17.13;;;15.33;;
9467;SDS011;4772;52.382;9.752;2024-03-06T15:00:47;19.97;;;15.90;;
9467;SDS011;4772;52.382;9.752;2024-03-06T15:03:13;19.77;;;15.03;;
9467;SDS011;4772;52.382;9.752;2024-03-06T15:05:39;19.23;;;16.27;;
9467;SDS011;4772;52.382;9.752;2024-03-06T15:08:05;18.50;;;15.23;;
9467;SDS011;4772;52.382;9.752;2024-03-06T15:10:31;18.50;;;15.40;;
9467;SDS011;4772;52.382;9.752;2024-03-06T15:12:57;19.13;;;15.43;;
9467;SDS011;4772;52.382;9.752;2024-03-06T15:15:24;21.23;;;15.40;;
9467;SDS011;4772;52.382;9.752;2024-03-06T15:17:50;19.17;;;14.67;;
9467;SDS011;4772;52.382;9.752;2024-03-06T15:20:16;17.70;;;15.27;;
9467;SDS011;4772;52.382;9.752;2024-03-06T15:22:45;16.93;;;14.50;;
9467;SDS011;4772;52.382;9.752;2024-03-06T15:25:11;17.90;;;14.33;;
9467;SDS011;4772;52.382;9.752;2024-03-06T15:27:38;20.03;;;15.00;;
9467;SDS011;4772;52.382;9.752;2024-03-06T15:30:04;17.87;;;14.47;;
9467;SDS011;4772;52.382;9.752;2024-03-06T15:32:31;18.63;;;14.67;;
9467;SDS011;4772;52.382;9.752;2024-03-06T15:34:57;20.23;;;14.87;;
9467;SDS011;4772;52.382;9.752;2024-03-06T15:37:24;23.30;;;14.83;;
9467;SDS011;4772;52.382;9.752;2024-03-06T15:39:53;19.17;;;14.10;;
9467;SDS011;4772;52.382;9.752;2024-03-06T15:42:20;17.70;;;14.83;;
9467;SDS011;4772;52.382;9.752;2024-03-06T15:44:49;17.30;;;14.40;;
9467;SDS011;4772;52.382;9.752;2024-03-06T15:47:19;23.07;;;14.30;;
9467;SDS011;4772;52.382;9.752;2024-03-06T15:49:45;19.30;;;14.17;;
9467;SDS011;4772;52.382;9.752;2024-03-06T15:52:15;18.03;;;14.80;;
9467;SDS011;4772;52.382;9.752;2024-03-06T15:54:41;16.43;;;14.37;;
9467;SDS011;4772;52.382;9.752;2024-03-06T15:57:08;22.43;;;14.20;;
9467;SDS011;4772;52.382;9.752;2024-03-06T15:59:34;17.90;;;13.67;;
9467;SDS011;4772;52.382;9.752;2024-03-06T16:02:01;21.37;;;14.60;;
9467;SDS011;4772;52.382;9.752;2024-03-06T16:04:27;19.73;;;13.43;;
9467;SDS011;4772;52.382;9.752;2024-03-06T16:06:53;17.27;;;13.40;;
9467;SDS011;4772;52.382;9.752;2024-03-06T16:09:19;23.27;;;14.80;;
9467;SDS011;4772;52.382;9.752;2024-03-06T16:11:48;16.97;;;13.10;;
9467;SDS011;4772;52.382;9.752;2024-03-06T16:14:20;16.90;;;13.43;;
9467;SDS011;4772;52.382;9.752;2024-03-06T16:16:46;17.93;;;13.37;;
9467;SDS011;4772;52.382;9.752;2024-03-06T16:19:12;16.07;;;13.20;;
9467;SDS011;4772;52.382;9.752;2024-03-06T16:21:41;15.57;;;12.83;;
9467;SDS011;4772;52.382;9.752;2024-03-06T16:24:07;18.73;;;13.20;;
9467;SDS011;4772;52.382;9.752;2024-03-06T16:26:36;17.63;;;12.33;;
9467;SDS011;4772;52.382;9.752;2024-03-06T16:29:02;26.13;;;18.10;;
9467;SDS011;4772;52.382;9.752;2024-03-06T16:31:28;19.23;;;12.40;;
9467;SDS011;4772;52.382;9.752;2024-03-06T16:33:54;19.13;;;12.57;;
9467;SDS011;4772;52.382;9.752;2024-03-06T16:36:21;16.90;;;13.03;;
9467;SDS011;4772;52.382;9.752;2024-03-06T16:38:50;14.83;;;11.57;;
9467;SDS011;4772;52.382;9.752;2024-03-06T16:41:16;17.90;;;11.97;;